createdAt,value
2022-10-28T00:01:25.326Z,10.50
2022-10-28T00:04:00.432Z,10.45
2022-10-28T00:06:34.971Z,10.44
2022-10-28T00:09:05.746Z,10.46
2022-10-28T00:11:36.137Z,10.42
2022-10-28T00:14:06.642Z,10.41
2022-10-28T00:16:37.163Z,10.43
2022-10-28T00:19:08.059Z,10.39
2022-10-28T00:21:38.826Z,10.43
2022-10-28T00:24:09.221Z,10.43
2022-10-28T00:26:42.106Z,10.46
2022-10-28T00:29:17.906Z,10.50
2022-10-28T00:31:47.075Z,10.49
2022-10-28T00:34:18.940Z,10.44
2022-10-28T00:36:48.250Z,10.45
2022-10-28T00:39:20.771Z,10.52
2022-10-28T00:41:58.641Z,10.54
2022-10-28T00:44:56.709Z,10.51
2022-10-28T00:47:55.767Z,10.51
2022-10-28T00:50:47.934Z,10.40
2022-10-28T00:53:26.434Z,10.36
2022-10-28T00:55:57.023Z,10.33
2022-10-28T00:58:26.421Z,10.33
2022-10-28T01:00:54.654Z,10.26
2022-10-28T01:03:23.114Z,10.26
2022-10-28T01:05:52.050Z,10.27
2022-10-28T01:08:20.182Z,10.24
2022-10-28T01:11:06.433Z,10.17
2022-10-28T01:14:24.401Z,10.10
2022-10-28T01:17:10.270Z,10.05
2022-10-28T01:19:49.343Z,10.00
2022-10-28T01:22:52.124Z,9.95
2022-10-28T01:26:03.864Z,9.96
2022-10-28T01:29:07.600Z,9.95
2022-10-28T01:32:11.693Z,9.91
2022-10-28T01:35:33.500Z,9.89
2022-10-28T01:38:28.018Z,9.88
2022-10-28T01:41:35.941Z,9.87
2022-10-28T01:44:44.981Z,9.92
2022-10-28T01:47:25.458Z,9.93
2022-10-28T01:50:15.588Z,9.95
2022-10-28T01:52:44.655Z,9.96
2022-10-28T01:55:39.140Z,9.97
2022-10-28T01:58:11.802Z,9.97
2022-10-28T02:00:40.657Z,9.97
2022-10-28T02:03:10.011Z,9.98
2022-10-28T02:05:46.826Z,9.98
2022-10-28T02:08:46.177Z,10.02
2022-10-28T02:11:38.773Z,10.03
2022-10-28T02:14:52.974Z,9.99
2022-10-28T02:17:38.290Z,10.01
2022-10-28T02:20:26.582Z,10.00
2022-10-28T02:23:27.403Z,10.01
2022-10-28T02:26:12.426Z,10.02
2022-10-28T02:29:17.748Z,10.01
2022-10-28T02:31:54.955Z,10.06
2022-10-28T02:34:31.020Z,10.10
2022-10-28T02:37:03.839Z,10.11
2022-10-28T02:39:40.632Z,10.19
2022-10-28T02:42:26.174Z,10.23
2022-10-28T02:45:00.402Z,10.26
2022-10-28T02:47:33.869Z,10.27
2022-10-28T02:50:06.461Z,10.29
2022-10-28T02:52:35.434Z,10.32
2022-10-28T02:55:06.070Z,10.32
2022-10-28T02:57:44.763Z,10.34
2022-10-28T03:00:19.445Z,10.26
2022-10-28T03:02:47.142Z,10.25
2022-10-28T03:05:14.990Z,10.25
2022-10-28T03:07:43.075Z,10.26
2022-10-28T03:10:10.759Z,10.25
2022-10-28T03:12:38.509Z,10.24
2022-10-28T03:15:07.195Z,10.24
2022-10-28T03:17:34.820Z,10.24
2022-10-28T03:20:02.577Z,10.25
2022-10-28T03:22:30.283Z,10.28
2022-10-28T03:24:57.929Z,10.29
2022-10-28T03:27:25.673Z,10.26
2022-10-28T03:29:53.319Z,10.27
2022-10-28T03:34:53.630Z,10.33
2022-10-28T03:37:21.274Z,10.32
2022-10-28T03:39:48.930Z,10.35
2022-10-28T03:42:16.733Z,10.36
2022-10-28T03:44:44.493Z,10.35
2022-10-28T03:47:12.122Z,10.37
2022-10-28T03:49:39.808Z,10.37
2022-10-28T03:52:07.450Z,10.36
2022-10-28T03:54:35.094Z,10.35
2022-10-28T03:57:02.884Z,10.35
2022-10-28T03:59:30.671Z,10.35
2022-10-28T04:01:58.425Z,10.37
2022-10-28T04:04:29.913Z,10.38
2022-10-28T04:06:58.626Z,10.36
2022-10-28T04:09:26.250Z,10.33
2022-10-28T04:11:54.112Z,10.35
2022-10-28T04:14:21.825Z,10.38
2022-10-28T04:16:49.469Z,10.40
2022-10-28T04:19:17.130Z,10.41
2022-10-28T04:21:44.816Z,10.46
2022-10-28T04:24:12.516Z,10.49
2022-10-28T04:26:40.270Z,10.51
2022-10-28T04:29:07.973Z,10.53
2022-10-28T04:31:35.654Z,10.55
2022-10-28T04:34:03.600Z,10.57
2022-10-28T04:36:31.340Z,10.58
2022-10-28T04:38:59.015Z,10.58
2022-10-28T04:41:26.682Z,10.56
2022-10-28T04:43:56.300Z,10.56
2022-10-28T04:46:24.258Z,10.57
2022-10-28T04:48:52.041Z,10.57
2022-10-28T04:51:19.702Z,10.57
2022-10-28T04:53:47.511Z,10.56
2022-10-28T04:56:15.201Z,10.53
2022-10-28T04:58:42.895Z,10.53
2022-10-28T05:01:11.057Z,10.54
2022-10-28T05:03:38.812Z,10.49
2022-10-28T05:06:06.618Z,10.52
2022-10-28T05:08:34.263Z,10.54
2022-10-28T05:11:01.927Z,10.56
2022-10-28T05:13:29.600Z,10.60
2022-10-28T05:15:57.370Z,10.60
2022-10-28T05:18:25.023Z,10.56
2022-10-28T05:20:55.038Z,10.58
2022-10-28T05:23:25.902Z,10.59
2022-10-28T05:25:58.251Z,10.57
2022-10-28T05:28:26.085Z,10.57
2022-10-28T05:30:53.835Z,10.57
2022-10-28T05:33:21.868Z,10.56
2022-10-28T05:35:49.891Z,10.55
2022-10-28T05:38:18.045Z,10.54
2022-10-28T05:40:45.752Z,10.53
2022-10-28T05:43:13.497Z,10.50
2022-10-28T05:45:41.195Z,10.48
2022-10-28T05:48:08.926Z,10.45
2022-10-28T05:50:36.606Z,10.45
2022-10-28T05:53:04.281Z,10.45
2022-10-28T05:55:32.063Z,10.46
2022-10-28T05:57:59.909Z,10.46
2022-10-28T06:00:28.814Z,10.47
2022-10-28T06:03:10.380Z,10.46
2022-10-28T06:05:44.195Z,10.49
2022-10-28T06:08:13.868Z,10.50
2022-10-28T06:10:56.942Z,10.51
2022-10-28T06:13:24.663Z,10.53
2022-10-28T06:15:55.291Z,10.54
2022-10-28T06:18:23.384Z,10.54
2022-10-28T06:21:00.373Z,10.56
2022-10-28T06:23:28.091Z,10.56
2022-10-28T06:26:00.942Z,10.55
2022-10-28T06:28:29.618Z,10.53
2022-10-28T06:31:05.624Z,10.56
2022-10-28T06:33:33.787Z,10.57
2022-10-28T06:36:02.348Z,10.61
2022-10-28T06:38:30.400Z,10.61
2022-10-28T06:40:58.200Z,10.53
2022-10-28T06:43:26.538Z,10.61
2022-10-28T06:45:55.788Z,10.67
2022-10-28T06:48:25.010Z,10.70
2022-10-28T06:50:56.169Z,10.73
2022-10-28T06:53:25.403Z,10.78
2022-10-28T06:55:57.335Z,10.83
2022-10-28T06:58:26.287Z,10.88
2022-10-28T07:00:56.538Z,10.92
2022-10-28T07:03:23.243Z,10.97
2022-10-28T07:05:51.489Z,11.03
2022-10-28T07:08:19.610Z,11.07
2022-10-28T07:10:58.892Z,11.12
2022-10-28T07:13:27.490Z,11.16
2022-10-28T07:16:00.654Z,11.20
2022-10-28T07:18:29.876Z,11.23
2022-10-28T07:21:01.486Z,11.27
2022-10-28T07:23:34.148Z,11.32
2022-10-28T07:26:02.094Z,11.35
2022-10-28T07:28:29.952Z,11.40
2022-10-28T07:31:02.600Z,11.45
2022-10-28T07:33:30.614Z,11.52
2022-10-28T07:35:58.329Z,11.58
2022-10-28T07:38:26.487Z,11.63
2022-10-28T07:40:54.373Z,11.68
2022-10-28T07:43:22.061Z,11.73
2022-10-28T07:45:57.201Z,11.80
2022-10-28T07:48:25.057Z,11.86
2022-10-28T07:50:52.780Z,11.93
2022-10-28T07:53:22.618Z,11.98
2022-10-28T07:55:58.036Z,12.06
2022-10-28T07:58:25.880Z,12.22
2022-10-28T08:00:53.927Z,12.40
2022-10-28T08:03:21.895Z,12.56
2022-10-28T08:05:49.568Z,12.70
2022-10-28T08:08:17.256Z,12.76
2022-10-28T08:10:44.865Z,12.82
2022-10-28T08:13:12.625Z,12.94
2022-10-28T08:15:40.288Z,13.04
2022-10-28T08:18:07.892Z,13.07
2022-10-28T08:20:35.599Z,13.15
2022-10-28T08:23:05.359Z,13.23
2022-10-28T08:25:35.231Z,13.34
2022-10-28T08:28:02.894Z,13.43
2022-10-28T08:30:36.545Z,13.50
2022-10-28T08:33:14.448Z,13.59
2022-10-28T08:35:42.896Z,13.74
2022-10-28T08:38:10.730Z,13.88
2022-10-28T08:41:22.072Z,14.01
2022-10-28T08:44:05.896Z,14.15
2022-10-28T08:47:25.816Z,14.26
2022-10-28T08:50:03.235Z,14.42
2022-10-28T08:52:45.966Z,14.54
2022-10-28T08:55:33.354Z,14.62
2022-10-28T08:58:16.579Z,14.75
2022-10-28T09:00:51.964Z,14.85
2022-10-28T09:03:38.999Z,14.98
2022-10-28T09:06:10.234Z,15.11
2022-10-28T09:08:51.059Z,15.22
2022-10-28T09:11:54.712Z,15.33
2022-10-28T09:14:37.390Z,15.39
2022-10-28T09:17:20.178Z,15.49
2022-10-28T09:19:56.982Z,15.57
2022-10-28T09:22:53.683Z,15.71
2022-10-28T09:25:50.087Z,15.78
2022-10-28T09:29:03.652Z,15.89
2022-10-28T09:31:47.468Z,16.05
2022-10-28T09:34:43.340Z,16.17
2022-10-28T09:37:28.141Z,16.24
2022-10-28T09:40:02.643Z,16.33
2022-10-28T09:42:37.577Z,16.43
2022-10-28T09:45:16.506Z,16.53
2022-10-28T09:47:53.625Z,16.62
2022-10-28T09:50:27.801Z,16.78
2022-10-28T09:53:16.268Z,16.94
2022-10-28T09:55:44.405Z,16.97
2022-10-28T09:58:13.830Z,17.05
2022-10-28T10:00:42.033Z,17.00
2022-10-28T10:03:10.011Z,17.00
2022-10-28T10:05:44.806Z,17.01
2022-10-28T10:08:18.817Z,17.06
2022-10-28T10:11:01.024Z,17.12
2022-10-28T10:13:34.816Z,17.18
2022-10-28T10:16:19.794Z,17.34
2022-10-28T10:18:54.473Z,17.53
2022-10-28T10:21:52.932Z,17.70
2022-10-28T10:24:36.071Z,17.89
2022-10-28T10:27:19.657Z,18.02
2022-10-28T10:29:51.234Z,18.03
2022-10-28T10:32:24.970Z,18.03
2022-10-28T10:35:25.900Z,17.99
2022-10-28T10:37:57.820Z,17.98
2022-10-28T10:40:33.456Z,17.98
2022-10-28T10:43:20.748Z,17.96
2022-10-28T10:45:58.843Z,17.94
2022-10-28T10:48:28.915Z,17.94
2022-10-28T10:50:56.991Z,17.96
2022-10-28T10:53:34.037Z,17.99
2022-10-28T10:56:10.774Z,18.07
2022-10-28T10:58:49.818Z,18.09
2022-10-28T11:01:24.043Z,18.10
2022-10-28T11:04:03.114Z,18.08
2022-10-28T11:06:36.626Z,18.18
2022-10-28T11:09:17.577Z,18.21
2022-10-28T11:11:45.688Z,18.33
2022-10-28T11:14:13.404Z,18.41
2022-10-28T11:16:54.375Z,18.47
2022-10-28T11:19:26.397Z,18.47
2022-10-28T11:22:01.174Z,18.50
2022-10-28T11:24:46.332Z,18.60
2022-10-28T11:27:57.611Z,18.56
2022-10-28T11:31:08.451Z,18.59
2022-10-28T11:34:05.454Z,18.65
2022-10-28T11:36:47.847Z,18.84
2022-10-28T11:39:34.051Z,19.05
2022-10-28T11:42:38.263Z,19.08
2022-10-28T11:45:21.374Z,19.21
2022-10-28T11:48:07.201Z,19.32
2022-10-28T11:50:57.421Z,19.49
2022-10-28T11:54:12.511Z,19.65
2022-10-28T11:56:47.914Z,20.04
2022-10-28T11:59:52.826Z,20.32
2022-10-28T12:02:49.398Z,20.46
2022-10-28T12:05:53.536Z,20.25
2022-10-28T12:08:58.337Z,20.11
2022-10-28T12:11:51.868Z,19.90
2022-10-28T12:14:37.407Z,19.81
2022-10-28T12:17:19.873Z,19.78
2022-10-28T12:19:59.517Z,19.88
2022-10-28T12:22:33.999Z,19.95
2022-10-28T12:25:08.961Z,19.92
2022-10-28T12:27:41.892Z,19.77
2022-10-28T12:30:21.723Z,19.59
2022-10-28T12:33:15.653Z,19.38
2022-10-28T12:36:32.087Z,19.35
2022-10-28T12:39:03.019Z,19.56
2022-10-28T12:41:55.157Z,19.70
2022-10-28T12:44:26.193Z,19.77
2022-10-28T12:47:14.117Z,20.01
2022-10-28T12:50:04.120Z,20.24
2022-10-28T12:53:01.949Z,20.34
2022-10-28T12:55:51.353Z,20.45
2022-10-28T12:58:36.263Z,20.47
2022-10-28T13:01:15.416Z,20.54
2022-10-28T13:03:43.355Z,20.41
2022-10-28T13:06:41.570Z,20.25
2022-10-28T13:09:38.002Z,20.25
2022-10-28T13:12:41.782Z,20.03
2022-10-28T13:15:32.685Z,20.07
2022-10-28T13:18:46.428Z,20.03
2022-10-28T13:22:13.157Z,19.83
2022-10-28T13:25:41.198Z,19.65
2022-10-28T13:28:16.282Z,19.57
2022-10-28T13:31:01.200Z,19.51
2022-10-28T13:33:33.062Z,19.45
2022-10-28T13:36:36.198Z,19.50
2022-10-28T13:39:23.989Z,19.49
2022-10-28T13:42:14.772Z,19.90
2022-10-28T13:44:57.456Z,19.93
2022-10-28T13:47:33.069Z,19.93
2022-10-28T13:50:07.381Z,19.80
2022-10-28T13:52:40.350Z,19.71
2022-10-28T13:55:14.196Z,19.59
2022-10-28T13:57:46.633Z,19.57
2022-10-28T14:00:17.562Z,19.55
2022-10-28T14:02:49.516Z,19.53
2022-10-28T14:05:40.802Z,19.60
2022-10-28T14:08:34.510Z,19.75
2022-10-28T14:11:08.729Z,19.72
2022-10-28T14:13:49.704Z,19.60
2022-10-28T14:16:40.253Z,19.45
2022-10-28T14:19:10.767Z,19.36
2022-10-28T14:21:51.325Z,19.26
2022-10-28T14:24:40.584Z,19.16
2022-10-28T14:27:08.343Z,19.09
2022-10-28T14:29:51.488Z,19.02
2022-10-28T14:32:31.723Z,18.93
2022-10-28T14:35:14.848Z,18.86
2022-10-28T14:38:08.473Z,18.78
2022-10-28T14:40:49.504Z,18.70
2022-10-28T14:43:40.465Z,18.64
2022-10-28T14:46:27.648Z,18.57
2022-10-28T14:48:57.913Z,18.49
2022-10-28T14:51:29.830Z,18.44
2022-10-28T14:54:00.562Z,18.39
2022-10-28T14:56:31.162Z,18.32
2022-10-28T14:59:26.299Z,18.31
2022-10-28T15:02:10.223Z,18.37
2022-10-28T15:04:41.645Z,18.39
2022-10-28T15:07:14.928Z,18.34
2022-10-28T15:09:48.839Z,18.33
2022-10-28T15:12:17.812Z,18.29
2022-10-28T15:14:53.195Z,18.27
2022-10-28T15:17:28.143Z,18.25
2022-10-28T15:20:00.400Z,18.20
2022-10-28T15:22:33.267Z,18.12
2022-10-28T15:25:06.960Z,18.09
2022-10-28T15:27:38.108Z,17.99
2022-10-28T15:30:23.625Z,17.90
2022-10-28T15:32:54.007Z,17.79
2022-10-28T15:35:27.757Z,17.75
2022-10-28T15:37:59.807Z,17.74
2022-10-28T15:40:35.406Z,17.70
2022-10-28T15:43:06.002Z,17.67
2022-10-28T15:45:41.346Z,17.65
2022-10-28T15:48:14.423Z,17.62
2022-10-28T15:50:42.160Z,17.58
2022-10-28T15:53:09.739Z,17.52
2022-10-28T15:56:06.630Z,17.48
2022-10-28T15:58:42.224Z,17.42
2022-10-28T16:01:31.495Z,17.40
2022-10-28T16:03:59.436Z,17.35
2022-10-28T16:06:34.752Z,17.28
2022-10-28T16:09:09.136Z,17.18
2022-10-28T16:11:42.823Z,17.10
2022-10-28T16:14:41.293Z,17.03
2022-10-28T16:17:27.444Z,16.95
2022-10-28T16:20:00.632Z,16.88
2022-10-28T16:22:31.073Z,16.84
2022-10-28T16:24:58.742Z,16.80
2022-10-28T16:27:31.041Z,16.80
2022-10-28T16:29:58.926Z,16.74
2022-10-28T16:32:33.913Z,16.72
2022-10-28T16:35:08.791Z,16.73
2022-10-28T16:37:40.452Z,16.68
2022-10-28T16:40:30.987Z,16.66
2022-10-28T16:43:01.524Z,16.62
2022-10-28T16:45:29.271Z,16.59
2022-10-28T16:47:57.084Z,16.52
2022-10-28T16:50:25.178Z,16.47
2022-10-28T16:52:54.961Z,16.44
2022-10-28T16:55:22.750Z,16.39
2022-10-28T16:57:50.399Z,16.37
2022-10-28T17:00:18.961Z,16.35
2022-10-28T17:02:50.651Z,16.31
2022-10-28T17:05:22.368Z,16.29
2022-10-28T17:07:50.845Z,16.32
2022-10-28T17:10:18.556Z,16.28
2022-10-28T17:12:46.249Z,16.21
2022-10-28T17:15:14.000Z,16.21
2022-10-28T17:17:42.535Z,16.21
2022-10-28T17:20:10.832Z,16.18
2022-10-28T17:22:40.390Z,16.13
2022-10-28T17:25:09.265Z,16.12
2022-10-28T17:27:36.980Z,16.13
2022-10-28T17:30:06.128Z,16.11
2022-10-28T17:32:34.062Z,16.10
2022-10-28T17:35:01.741Z,16.07
2022-10-28T17:37:29.892Z,16.08
2022-10-28T17:39:57.536Z,16.10
2022-10-28T17:42:25.669Z,16.09
2022-10-28T17:44:53.400Z,16.07
2022-10-28T17:47:21.032Z,16.04
2022-10-28T17:49:48.728Z,16.01
2022-10-28T17:52:16.456Z,16.04
2022-10-28T17:54:44.256Z,16.08
2022-10-28T17:57:12.582Z,16.07
2022-10-28T17:59:40.312Z,16.05
2022-10-28T18:02:13.272Z,16.01
2022-10-28T18:04:42.177Z,16.00
2022-10-28T18:07:09.811Z,15.96
2022-10-28T18:09:37.552Z,15.90
2022-10-28T18:12:06.638Z,15.84
2022-10-28T18:14:34.313Z,15.80
2022-10-28T18:17:02.028Z,15.78
2022-10-28T18:19:29.860Z,15.76
2022-10-28T18:21:57.615Z,15.75
2022-10-28T18:24:26.061Z,15.75
2022-10-28T18:26:55.830Z,15.71
2022-10-28T18:29:24.080Z,15.66
2022-10-28T18:31:51.862Z,15.65
2022-10-28T18:34:21.115Z,15.63
2022-10-28T18:36:49.448Z,15.62
2022-10-28T18:39:17.179Z,15.67
2022-10-28T18:41:44.879Z,15.70
2022-10-28T18:44:14.374Z,15.67
2022-10-28T18:46:42.605Z,15.65
2022-10-28T18:49:10.355Z,15.66
2022-10-28T18:51:38.132Z,15.66
2022-10-28T18:54:06.004Z,15.66
2022-10-28T18:56:34.330Z,15.70
2022-10-28T18:59:04.491Z,15.73
2022-10-28T19:01:33.182Z,15.81
2022-10-28T19:04:04.264Z,15.90
2022-10-28T19:06:33.972Z,15.99
2022-10-28T19:09:04.597Z,16.01
2022-10-28T19:11:33.821Z,16.07
2022-10-28T19:14:05.176Z,16.10
2022-10-28T19:16:34.931Z,16.13
2022-10-28T19:19:05.169Z,16.15
2022-10-28T19:21:33.586Z,16.13
2022-10-28T19:24:02.769Z,16.17
2022-10-28T19:26:32.010Z,16.18
2022-10-28T19:28:59.801Z,16.27
2022-10-28T19:31:27.535Z,16.34
2022-10-28T19:33:55.579Z,16.34
2022-10-28T19:36:29.405Z,16.35
2022-10-28T19:38:58.240Z,16.39
2022-10-28T19:41:29.473Z,16.36
2022-10-28T19:44:00.709Z,16.30
2022-10-28T19:46:32.374Z,16.27
2022-10-28T19:49:04.426Z,16.26
2022-10-28T19:51:39.749Z,16.23
2022-10-28T19:54:12.273Z,16.21
2022-10-28T19:56:42.603Z,16.20
2022-10-28T19:59:10.516Z,16.22
2022-10-28T20:01:39.896Z,16.21
2022-10-28T20:04:09.801Z,16.18
2022-10-28T20:06:40.577Z,16.13
2022-10-28T20:09:09.140Z,16.10
2022-10-28T20:11:39.612Z,16.08
2022-10-28T20:14:11.755Z,16.11
2022-10-28T20:16:42.958Z,16.08
2022-10-28T20:19:12.331Z,16.02
2022-10-28T20:21:40.400Z,16.00
2022-10-28T20:24:08.708Z,15.97
2022-10-28T20:26:38.431Z,15.92
2022-10-28T20:29:09.951Z,15.92
2022-10-28T20:31:41.037Z,15.87
2022-10-28T20:34:08.799Z,15.83
2022-10-28T20:36:39.963Z,15.86
2022-10-28T20:39:14.320Z,15.82
2022-10-28T20:41:44.697Z,15.82
2022-10-28T20:44:13.007Z,15.82
2022-10-28T20:46:41.644Z,15.78
2022-10-28T20:49:09.861Z,15.78
2022-10-28T20:51:37.534Z,15.75
2022-10-28T20:54:06.539Z,15.70
2022-10-28T20:56:37.732Z,15.68
2022-10-28T20:59:06.374Z,15.66
2022-10-28T21:01:40.641Z,15.62
2022-10-28T21:04:10.858Z,15.58
2022-10-28T21:06:39.969Z,15.55
2022-10-28T21:09:08.893Z,15.58
2022-10-28T21:11:36.649Z,15.61
2022-10-28T21:14:04.352Z,15.60
2022-10-28T21:16:32.328Z,15.59
2022-10-28T21:19:00.168Z,15.58
2022-10-28T21:21:29.293Z,15.55
2022-10-28T21:23:59.631Z,15.53
2022-10-28T21:26:27.468Z,15.52
2022-10-28T21:28:56.302Z,15.56
2022-10-28T21:31:24.643Z,15.52
2022-10-28T21:33:53.229Z,15.50
2022-10-28T21:36:22.295Z,15.45
2022-10-28T21:38:55.328Z,15.39
2022-10-28T21:41:24.272Z,15.34
2022-10-28T21:43:53.857Z,15.32
2022-10-28T21:46:23.328Z,15.28
2022-10-28T21:48:52.384Z,15.28
2022-10-28T21:51:20.031Z,15.28
2022-10-28T21:53:47.837Z,15.27
2022-10-28T21:56:19.431Z,15.19
2022-10-28T21:58:50.293Z,15.15
2022-10-28T22:01:22.108Z,15.12
2022-10-28T22:03:52.185Z,15.08
2022-10-28T22:06:22.204Z,15.01
2022-10-28T22:08:53.581Z,14.97
2022-10-28T22:11:23.897Z,14.93
2022-10-28T22:14:03.727Z,14.95
2022-10-28T22:16:34.367Z,14.93
2022-10-28T22:19:05.983Z,14.85
2022-10-28T22:21:40.097Z,14.80
2022-10-28T22:24:08.626Z,14.80
2022-10-28T22:26:36.294Z,14.82
2022-10-28T22:29:04.624Z,14.86
2022-10-28T22:31:33.364Z,14.81
2022-10-28T22:34:01.416Z,14.78
2022-10-28T22:36:29.904Z,14.77
2022-10-28T22:38:58.197Z,14.72
2022-10-28T22:41:30.724Z,14.73
2022-10-28T22:44:01.592Z,14.71
2022-10-28T22:46:33.477Z,14.67
2022-10-28T22:49:01.136Z,14.61
2022-10-28T22:51:28.842Z,14.54
2022-10-28T22:53:57.267Z,14.52
2022-10-28T22:56:26.863Z,14.54
2022-10-28T22:58:57.628Z,14.53
2022-10-28T23:01:28.334Z,14.53
2022-10-28T23:03:56.284Z,14.53
2022-10-28T23:06:27.177Z,14.45
2022-10-28T23:08:54.952Z,14.44
2022-10-28T23:11:23.063Z,14.41
2022-10-28T23:13:53.210Z,14.39
2022-10-28T23:16:22.808Z,14.41
2022-10-28T23:18:52.901Z,14.39
2022-10-28T23:21:24.138Z,14.38
2022-10-28T23:23:57.958Z,14.36
2022-10-28T23:26:28.325Z,14.32
2022-10-28T23:29:00.669Z,14.30
2022-10-28T23:31:28.585Z,14.27
2022-10-28T23:33:56.449Z,14.24
2022-10-28T23:36:24.403Z,14.22
2022-10-28T23:38:52.517Z,14.20
2022-10-28T23:41:20.990Z,14.19
2022-10-28T23:43:49.457Z,14.19
2022-10-28T23:46:18.345Z,14.16
2022-10-28T23:48:46.058Z,14.12
2022-10-28T23:51:14.126Z,14.10
2022-10-28T23:53:41.865Z,14.06
2022-10-28T23:56:09.515Z,14.07
2022-10-28T23:58:37.209Z,14.10
